sensor_id;sensor_type;location;lat;lon;timestamp;P1;durP1;ratioP1;P2;durP2;ratioP2
63499;SDS011;49654;51.142;14.924;2022-11-14T00:00:04;36.20;;;18.07;;
63499;SDS011;49654;51.142;14.924;2022-11-14T00:02:33;27.77;;;17.60;;
63499;SDS011;49654;51.142;14.924;2022-11-14T00:05:00;25.10;;;17.40;;
63499;SDS011;49654;51.142;14.924;2022-11-14T00:07:28;26.90;;;18.57;;
63499;SDS011;49654;51.142;14.924;2022-11-14T00:09:55;28.87;;;18.70;;
63499;SDS011;49654;51.142;14.924;2022-11-14T00:12:22;26.40;;;16.83;;
63499;SDS011;49654;51.142;14.924;2022-11-14T00:14:50;24.97;;;17.40;;
63499;SDS011;49654;51.142;14.924;2022-11-14T00:17:17;29.23;;;16.43;;
63499;SDS011;49654;51.142;14.924;2022-11-14T00:19:45;27.97;;;18.17;;
63499;SDS011;49654;51.142;14.924;2022-11-14T00:22:12;30.57;;;18.20;;
63499;SDS011;49654;51.142;14.924;2022-11-14T00:24:39;27.40;;;17.93;;
63499;SDS011;49654;51.142;14.924;2022-11-14T00:27:06;26.83;;;18.37;;
63499;SDS011;49654;51.142;14.924;2022-11-14T00:29:33;26.23;;;18.57;;
63499;SDS011;49654;51.142;14.924;2022-11-14T00:32:01;29.43;;;19.20;;
63499;SDS011;49654;51.142;14.924;2022-11-14T00:34:28;28.97;;;19.20;;
63499;SDS011;49654;51.142;14.924;2022-11-14T00:36:56;27.13;;;19.47;;
63499;SDS011;49654;51.142;14.924;2022-11-14T00:39:23;33.60;;;18.93;;
63499;SDS011;49654;51.142;14.924;2022-11-14T00:41:50;32.23;;;19.77;;
63499;SDS011;49654;51.142;14.924;2022-11-14T00:44:17;33.63;;;21.00;;
63499;SDS011;49654;51.142;14.924;2022-11-14T00:46:44;39.57;;;20.10;;
63499;SDS011;49654;51.142;14.924;2022-11-14T00:49:11;31.63;;;19.47;;
63499;SDS011;49654;51.142;14.924;2022-11-14T00:51:38;27.20;;;19.27;;
63499;SDS011;49654;51.142;14.924;2022-11-14T00:54:07;30.00;;;20.33;;
63499;SDS011;49654;51.142;14.924;2022-11-14T00:56:34;30.53;;;19.90;;
63499;SDS011;49654;51.142;14.924;2022-11-14T00:59:01;28.20;;;20.23;;
63499;SDS011;49654;51.142;14.924;2022-11-14T01:01:28;29.53;;;20.40;;
63499;SDS011;49654;51.142;14.924;2022-11-14T01:03:55;29.57;;;19.40;;
63499;SDS011;49654;51.142;14.924;2022-11-14T01:06:22;27.23;;;19.30;;
63499;SDS011;49654;51.142;14.924;2022-11-14T01:08:49;27.93;;;20.10;;
63499;SDS011;49654;51.142;14.924;2022-11-14T01:11:19;30.07;;;18.93;;
63499;SDS011;49654;51.142;14.924;2022-11-14T01:13:48;25.27;;;18.63;;
63499;SDS011;49654;51.142;14.924;2022-11-14T01:16:15;32.60;;;18.43;;
63499;SDS011;49654;51.142;14.924;2022-11-14T01:18:42;28.30;;;18.73;;
63499;SDS011;49654;51.142;14.924;2022-11-14T01:21:09;22.03;;;16.70;;
63499;SDS011;49654;51.142;14.924;2022-11-14T01:23:38;53.50;;;18.83;;
63499;SDS011;49654;51.142;14.924;2022-11-14T01:26:06;39.20;;;17.17;;
63499;SDS011;49654;51.142;14.924;2022-11-14T01:28:36;25.90;;;17.13;;
63499;SDS011;49654;51.142;14.924;2022-11-14T01:31:10;66.43;;;16.10;;
63499;SDS011;49654;51.142;14.924;2022-11-14T01:33:39;32.20;;;15.67;;
63499;SDS011;49654;51.142;14.924;2022-11-14T01:36:06;21.00;;;15.10;;
63499;SDS011;49654;51.142;14.924;2022-11-14T01:38:34;22.10;;;15.93;;
63499;SDS011;49654;51.142;14.924;2022-11-14T01:41:02;20.60;;;14.93;;
63499;SDS011;49654;51.142;14.924;2022-11-14T01:43:30;24.43;;;14.87;;
63499;SDS011;49654;51.142;14.924;2022-11-14T01:46:01;19.87;;;13.87;;
63499;SDS011;49654;51.142;14.924;2022-11-14T01:48:35;19.53;;;14.30;;
63499;SDS011;49654;51.142;14.924;2022-11-14T01:51:11;22.17;;;15.17;;
63499;SDS011;49654;51.142;14.924;2022-11-14T01:53:44;20.87;;;15.03;;
63499;SDS011;49654;51.142;14.924;2022-11-14T01:56:14;18.77;;;14.00;;
63499;SDS011;49654;51.142;14.924;2022-11-14T01:58:44;21.80;;;15.07;;
63499;SDS011;49654;51.142;14.924;2022-11-14T02:01:16;22.13;;;14.10;;
63499;SDS011;49654;51.142;14.924;2022-11-14T02:03:43;18.23;;;13.87;;
63499;SDS011;49654;51.142;14.924;2022-11-14T02:06:14;17.57;;;13.60;;
63499;SDS011;49654;51.142;14.924;2022-11-14T02:08:44;16.93;;;12.67;;
63499;SDS011;49654;51.142;14.924;2022-11-14T02:11:12;18.40;;;13.10;;
63499;SDS011;49654;51.142;14.924;2022-11-14T02:13:39;17.23;;;13.00;;
63499;SDS011;49654;51.142;14.924;2022-11-14T02:16:06;19.60;;;13.00;;
63499;SDS011;49654;51.142;14.924;2022-11-14T02:18:34;22.40;;;13.30;;
63499;SDS011;49654;51.142;14.924;2022-11-14T02:21:03;18.30;;;13.40;;
63499;SDS011;49654;51.142;14.924;2022-11-14T02:23:31;17.17;;;13.17;;
63499;SDS011;49654;51.142;14.924;2022-11-14T02:25:58;17.57;;;13.03;;
63499;SDS011;49654;51.142;14.924;2022-11-14T02:28:25;18.33;;;13.53;;
63499;SDS011;49654;51.142;14.924;2022-11-14T02:30:53;18.70;;;13.50;;
63499;SDS011;49654;51.142;14.924;2022-11-14T02:33:20;18.10;;;14.00;;
63499;SDS011;49654;51.142;14.924;2022-11-14T02:35:47;19.83;;;13.50;;
63499;SDS011;49654;51.142;14.924;2022-11-14T02:38:15;18.80;;;13.50;;
63499;SDS011;49654;51.142;14.924;2022-11-14T02:40:43;20.80;;;13.53;;
63499;SDS011;49654;51.142;14.924;2022-11-14T02:43:10;18.23;;;13.20;;
63499;SDS011;49654;51.142;14.924;2022-11-14T02:45:37;18.53;;;12.70;;
63499;SDS011;49654;51.142;14.924;2022-11-14T02:48:04;18.57;;;13.53;;
63499;SDS011;49654;51.142;14.924;2022-11-14T02:50:31;19.03;;;13.57;;
63499;SDS011;49654;51.142;14.924;2022-11-14T02:52:58;17.83;;;12.70;;
63499;SDS011;49654;51.142;14.924;2022-11-14T02:55:27;17.50;;;12.90;;
63499;SDS011;49654;51.142;14.924;2022-11-14T02:57:54;17.37;;;12.97;;
63499;SDS011;49654;51.142;14.924;2022-11-14T03:00:21;17.97;;;13.20;;
63499;SDS011;49654;51.142;14.924;2022-11-14T03:02:48;17.67;;;13.33;;
63499;SDS011;49654;51.142;14.924;2022-11-14T03:05:15;20.37;;;13.60;;
63499;SDS011;49654;51.142;14.924;2022-11-14T03:07:42;18.37;;;13.63;;
63499;SDS011;49654;51.142;14.924;2022-11-14T03:10:09;21.90;;;13.00;;
63499;SDS011;49654;51.142;14.924;2022-11-14T03:12:39;19.03;;;13.00;;
63499;SDS011;49654;51.142;14.924;2022-11-14T03:15:07;17.90;;;12.43;;
63499;SDS011;49654;51.142;14.924;2022-11-14T03:17:35;26.63;;;13.07;;
63499;SDS011;49654;51.142;14.924;2022-11-14T03:20:02;18.67;;;11.30;;
63499;SDS011;49654;51.142;14.924;2022-11-14T03:22:30;18.57;;;11.70;;
63499;SDS011;49654;51.142;14.924;2022-11-14T03:24:57;16.30;;;11.20;;
63499;SDS011;49654;51.142;14.924;2022-11-14T03:27:24;16.03;;;11.60;;
63499;SDS011;49654;51.142;14.924;2022-11-14T03:29:52;14.10;;;10.47;;
63499;SDS011;49654;51.142;14.924;2022-11-14T03:32:19;14.70;;;10.63;;
63499;SDS011;49654;51.142;14.924;2022-11-14T03:34:46;14.03;;;10.50;;
63499;SDS011;49654;51.142;14.924;2022-11-14T03:37:13;14.13;;;10.27;;
63499;SDS011;49654;51.142;14.924;2022-11-14T03:39:40;30.10;;;13.17;;
63499;SDS011;49654;51.142;14.924;2022-11-14T03:42:07;14.63;;;11.20;;
63499;SDS011;49654;51.142;14.924;2022-11-14T03:44:35;15.00;;;11.00;;
63499;SDS011;49654;51.142;14.924;2022-11-14T03:47:03;13.50;;;10.50;;
63499;SDS011;49654;51.142;14.924;2022-11-14T03:49:30;13.33;;;10.77;;
63499;SDS011;49654;51.142;14.924;2022-11-14T03:51:57;15.40;;;11.20;;
63499;SDS011;49654;51.142;14.924;2022-11-14T03:54:24;14.50;;;11.00;;
63499;SDS011;49654;51.142;14.924;2022-11-14T03:56:51;15.37;;;11.47;;
63499;SDS011;49654;51.142;14.924;2022-11-14T03:59:18;16.03;;;11.63;;
63499;SDS011;49654;51.142;14.924;2022-11-14T04:01:45;14.80;;;10.50;;
63499;SDS011;49654;51.142;14.924;2022-11-14T04:04:14;14.27;;;11.17;;
63499;SDS011;49654;51.142;14.924;2022-11-14T04:06:41;15.67;;;11.67;;
63499;SDS011;49654;51.142;14.924;2022-11-14T04:09:09;15.77;;;11.60;;
63499;SDS011;49654;51.142;14.924;2022-11-14T04:11:36;19.27;;;11.73;;
63499;SDS011;49654;51.142;14.924;2022-11-14T04:14:03;14.30;;;10.90;;
63499;SDS011;49654;51.142;14.924;2022-11-14T04:16:30;15.67;;;11.47;;
63499;SDS011;49654;51.142;14.924;2022-11-14T04:18:57;17.33;;;11.57;;
63499;SDS011;49654;51.142;14.924;2022-11-14T04:21:25;16.03;;;11.43;;
63499;SDS011;49654;51.142;14.924;2022-11-14T04:23:53;15.70;;;11.43;;
63499;SDS011;49654;51.142;14.924;2022-11-14T04:26:20;16.97;;;12.33;;
63499;SDS011;49654;51.142;14.924;2022-11-14T04:28:47;16.23;;;12.13;;
63499;SDS011;49654;51.142;14.924;2022-11-14T04:31:14;17.93;;;12.73;;
63499;SDS011;49654;51.142;14.924;2022-11-14T04:33:41;16.70;;;13.30;;
63499;SDS011;49654;51.142;14.924;2022-11-14T04:36:08;17.43;;;13.10;;
63499;SDS011;49654;51.142;14.924;2022-11-14T04:38:37;20.40;;;13.07;;
63499;SDS011;49654;51.142;14.924;2022-11-14T04:41:04;19.43;;;13.87;;
63499;SDS011;49654;51.142;14.924;2022-11-14T04:43:31;18.57;;;13.20;;
63499;SDS011;49654;51.142;14.924;2022-11-14T04:45:58;18.37;;;13.43;;
63499;SDS011;49654;51.142;14.924;2022-11-14T04:48:25;19.03;;;13.33;;
63499;SDS011;49654;51.142;14.924;2022-11-14T04:50:52;17.37;;;12.47;;
63499;SDS011;49654;51.142;14.924;2022-11-14T04:53:19;28.57;;;12.17;;
63499;SDS011;49654;51.142;14.924;2022-11-14T04:55:47;18.30;;;11.83;;
63499;SDS011;49654;51.142;14.924;2022-11-14T04:58:14;18.20;;;12.20;;
63499;SDS011;49654;51.142;14.924;2022-11-14T05:00:41;20.97;;;11.57;;
63499;SDS011;49654;51.142;14.924;2022-11-14T05:03:08;24.40;;;12.73;;
63499;SDS011;49654;51.142;14.924;2022-11-14T05:05:35;16.03;;;11.77;;
63499;SDS011;49654;51.142;14.924;2022-11-14T05:08:02;15.53;;;11.50;;
63499;SDS011;49654;51.142;14.924;2022-11-14T05:10:30;20.33;;;11.87;;
63499;SDS011;49654;51.142;14.924;2022-11-14T05:12:58;17.87;;;11.77;;
63499;SDS011;49654;51.142;14.924;2022-11-14T05:15:25;43.90;;;13.33;;
63499;SDS011;49654;51.142;14.924;2022-11-14T05:17:52;21.33;;;11.63;;
63499;SDS011;49654;51.142;14.924;2022-11-14T05:20:22;21.00;;;13.13;;
63499;SDS011;49654;51.142;14.924;2022-11-14T05:22:51;19.70;;;11.60;;
63499;SDS011;49654;51.142;14.924;2022-11-14T05:25:18;16.47;;;12.17;;
63499;SDS011;49654;51.142;14.924;2022-11-14T05:27:46;21.30;;;12.53;;
63499;SDS011;49654;51.142;14.924;2022-11-14T05:30:15;17.63;;;11.70;;
63499;SDS011;49654;51.142;14.924;2022-11-14T05:32:42;15.13;;;11.67;;
63499;SDS011;49654;51.142;14.924;2022-11-14T05:35:09;19.07;;;13.07;;
63499;SDS011;49654;51.142;14.924;2022-11-14T05:37:36;17.60;;;11.80;;
63499;SDS011;49654;51.142;14.924;2022-11-14T05:40:04;16.27;;;11.63;;
63499;SDS011;49654;51.142;14.924;2022-11-14T05:42:32;17.07;;;11.70;;
63499;SDS011;49654;51.142;14.924;2022-11-14T05:44:59;16.40;;;12.17;;
63499;SDS011;49654;51.142;14.924;2022-11-14T05:47:27;22.17;;;12.47;;
63499;SDS011;49654;51.142;14.924;2022-11-14T05:49:54;28.20;;;12.93;;
63499;SDS011;49654;51.142;14.924;2022-11-14T05:52:21;19.87;;;13.57;;
63499;SDS011;49654;51.142;14.924;2022-11-14T05:54:48;19.13;;;13.23;;
63499;SDS011;49654;51.142;14.924;2022-11-14T05:57:15;18.57;;;13.47;;
63499;SDS011;49654;51.142;14.924;2022-11-14T05:59:42;18.77;;;13.70;;
63499;SDS011;49654;51.142;14.924;2022-11-14T06:02:09;17.33;;;12.87;;
63499;SDS011;49654;51.142;14.924;2022-11-14T06:04:37;23.83;;;15.57;;
63499;SDS011;49654;51.142;14.924;2022-11-14T06:07:05;21.27;;;14.30;;
63499;SDS011;49654;51.142;14.924;2022-11-14T06:09:32;28.60;;;18.83;;
63499;SDS011;49654;51.142;14.924;2022-11-14T06:11:59;26.03;;;16.13;;
63499;SDS011;49654;51.142;14.924;2022-11-14T06:14:30;22.47;;;14.80;;
63499;SDS011;49654;51.142;14.924;2022-11-14T06:16:57;19.80;;;13.97;;
63499;SDS011;49654;51.142;14.924;2022-11-14T06:19:24;23.03;;;16.13;;
63499;SDS011;49654;51.142;14.924;2022-11-14T06:21:52;21.90;;;15.30;;
63499;SDS011;49654;51.142;14.924;2022-11-14T06:24:19;20.73;;;15.40;;
63499;SDS011;49654;51.142;14.924;2022-11-14T06:26:46;23.93;;;15.47;;
63499;SDS011;49654;51.142;14.924;2022-11-14T06:29:13;22.10;;;15.27;;
63499;SDS011;49654;51.142;14.924;2022-11-14T06:31:40;20.30;;;14.17;;
63499;SDS011;49654;51.142;14.924;2022-11-14T06:34:09;23.07;;;15.60;;
63499;SDS011;49654;51.142;14.924;2022-11-14T06:36:36;24.07;;;13.90;;
63499;SDS011;49654;51.142;14.924;2022-11-14T06:39:05;28.67;;;17.83;;
63499;SDS011;49654;51.142;14.924;2022-11-14T06:41:32;25.80;;;16.77;;
63499;SDS011;49654;51.142;14.924;2022-11-14T06:43:59;20.73;;;14.27;;
63499;SDS011;49654;51.142;14.924;2022-11-14T06:46:26;20.33;;;13.93;;
63499;SDS011;49654;51.142;14.924;2022-11-14T06:48:53;18.23;;;12.63;;
63499;SDS011;49654;51.142;14.924;2022-11-14T06:51:20;18.27;;;12.77;;
63499;SDS011;49654;51.142;14.924;2022-11-14T06:53:47;17.87;;;12.17;;
63499;SDS011;49654;51.142;14.924;2022-11-14T06:56:16;20.53;;;14.00;;
63499;SDS011;49654;51.142;14.924;2022-11-14T06:58:46;18.20;;;12.20;;
63499;SDS011;49654;51.142;14.924;2022-11-14T07:01:15;21.47;;;14.00;;
63499;SDS011;49654;51.142;14.924;2022-11-14T07:03:43;21.93;;;14.20;;
63499;SDS011;49654;51.142;14.924;2022-11-14T07:06:13;26.17;;;15.43;;
63499;SDS011;49654;51.142;14.924;2022-11-14T07:08:40;20.37;;;13.80;;
63499;SDS011;49654;51.142;14.924;2022-11-14T07:11:08;20.03;;;13.90;;
63499;SDS011;49654;51.142;14.924;2022-11-14T07:13:38;25.23;;;14.47;;
63499;SDS011;49654;51.142;14.924;2022-11-14T07:16:05;26.23;;;13.60;;
63499;SDS011;49654;51.142;14.924;2022-11-14T07:18:32;41.10;;;15.23;;
63499;SDS011;49654;51.142;14.924;2022-11-14T07:21:00;18.97;;;14.53;;
63499;SDS011;49654;51.142;14.924;2022-11-14T07:23:30;21.07;;;14.33;;
63499;SDS011;49654;51.142;14.924;2022-11-14T07:25:59;23.03;;;14.20;;
63499;SDS011;49654;51.142;14.924;2022-11-14T07:28:27;21.37;;;15.23;;
63499;SDS011;49654;51.142;14.924;2022-11-14T07:30:56;19.33;;;14.40;;
63499;SDS011;49654;51.142;14.924;2022-11-14T07:33:23;19.30;;;13.27;;
63499;SDS011;49654;51.142;14.924;2022-11-14T07:35:50;19.90;;;14.77;;
63499;SDS011;49654;51.142;14.924;2022-11-14T07:38:17;18.67;;;13.77;;
63499;SDS011;49654;51.142;14.924;2022-11-14T07:40:51;18.83;;;14.23;;
63499;SDS011;49654;51.142;14.924;2022-11-14T07:43:18;24.67;;;15.63;;
63499;SDS011;49654;51.142;14.924;2022-11-14T07:45:46;19.37;;;14.67;;
63499;SDS011;49654;51.142;14.924;2022-11-14T07:48:14;18.47;;;14.13;;
63499;SDS011;49654;51.142;14.924;2022-11-14T07:50:42;21.43;;;15.20;;
63499;SDS011;49654;51.142;14.924;2022-11-14T07:53:09;19.47;;;14.07;;
63499;SDS011;49654;51.142;14.924;2022-11-14T07:55:37;18.17;;;13.83;;
63499;SDS011;49654;51.142;14.924;2022-11-14T07:58:04;22.93;;;14.30;;
63499;SDS011;49654;51.142;14.924;2022-11-14T08:00:31;21.77;;;15.40;;
63499;SDS011;49654;51.142;14.924;2022-11-14T08:02:58;19.93;;;14.87;;
63499;SDS011;49654;51.142;14.924;2022-11-14T08:05:26;20.63;;;15.93;;
63499;SDS011;49654;51.142;14.924;2022-11-14T08:07:53;20.97;;;15.50;;
63499;SDS011;49654;51.142;14.924;2022-11-14T08:10:20;20.27;;;15.70;;
63499;SDS011;49654;51.142;14.924;2022-11-14T08:12:55;18.77;;;14.43;;
63499;SDS011;49654;51.142;14.924;2022-11-14T08:15:23;20.47;;;14.90;;
63499;SDS011;49654;51.142;14.924;2022-11-14T08:17:50;18.17;;;13.87;;
63499;SDS011;49654;51.142;14.924;2022-11-14T08:20:17;17.45;;;12.95;;
63499;SDS011;49654;51.142;14.924;2022-11-14T08:22:46;15.60;;;12.38;;
63499;SDS011;49654;51.142;14.924;2022-11-14T08:25:13;17.75;;;13.25;;
63499;SDS011;49654;51.142;14.924;2022-11-14T08:27:40;18.10;;;13.77;;
63499;SDS011;49654;51.142;14.924;2022-11-14T08:30:07;17.70;;;13.70;;
63499;SDS011;49654;51.142;14.924;2022-11-14T08:32:35;17.02;;;12.75;;
63499;SDS011;49654;51.142;14.924;2022-11-14T08:35:02;17.65;;;12.75;;
63499;SDS011;49654;51.142;14.924;2022-11-14T08:37:30;16.20;;;13.20;;
63499;SDS011;49654;51.142;14.924;2022-11-14T08:39:58;15.80;;;12.95;;
63499;SDS011;49654;51.142;14.924;2022-11-14T08:42:25;16.48;;;13.40;;
63499;SDS011;49654;51.142;14.924;2022-11-14T08:44:52;15.00;;;13.18;;
63499;SDS011;49654;51.142;14.924;2022-11-14T08:47:19;19.02;;;14.35;;
63499;SDS011;49654;51.142;14.924;2022-11-14T08:49:46;16.98;;;14.02;;
63499;SDS011;49654;51.142;14.924;2022-11-14T08:52:13;20.55;;;15.57;;
63499;SDS011;49654;51.142;14.924;2022-11-14T08:54:40;21.48;;;15.52;;
63499;SDS011;49654;51.142;14.924;2022-11-14T08:57:08;18.67;;;15.05;;
63499;SDS011;49654;51.142;14.924;2022-11-14T08:59:37;18.88;;;15.73;;
63499;SDS011;49654;51.142;14.924;2022-11-14T09:02:04;18.63;;;15.13;;
63499;SDS011;49654;51.142;14.924;2022-11-14T09:04:31;23.83;;;17.70;;
63499;SDS011;49654;51.142;14.924;2022-11-14T09:06:58;22.23;;;16.85;;
63499;SDS011;49654;51.142;14.924;2022-11-14T09:09:25;23.08;;;17.83;;
63499;SDS011;49654;51.142;14.924;2022-11-14T09:11:52;20.95;;;16.50;;
63499;SDS011;49654;51.142;14.924;2022-11-14T09:14:20;22.30;;;18.20;;
63499;SDS011;49654;51.142;14.924;2022-11-14T09:16:47;22.02;;;17.55;;
63499;SDS011;49654;51.142;14.924;2022-11-14T09:19:14;22.65;;;17.48;;
63499;SDS011;49654;51.142;14.924;2022-11-14T09:21:41;24.65;;;17.65;;
63499;SDS011;49654;51.142;14.924;2022-11-14T09:24:08;21.13;;;17.50;;
63499;SDS011;49654;51.142;14.924;2022-11-14T09:26:35;20.92;;;17.17;;
63499;SDS011;49654;51.142;14.924;2022-11-14T09:29:02;22.05;;;17.02;;
63499;SDS011;49654;51.142;14.924;2022-11-14T09:31:32;20.75;;;17.13;;
63499;SDS011;49654;51.142;14.924;2022-11-14T09:33:59;22.88;;;16.08;;
63499;SDS011;49654;51.142;14.924;2022-11-14T09:36:26;21.13;;;15.95;;
63499;SDS011;49654;51.142;14.924;2022-11-14T09:38:53;22.27;;;16.33;;
63499;SDS011;49654;51.142;14.924;2022-11-14T09:41:23;22.20;;;16.90;;
63499;SDS011;49654;51.142;14.924;2022-11-14T09:47:09;22.45;;;17.10;;
63499;SDS011;49654;51.142;14.924;2022-11-14T09:49:41;22.25;;;17.60;;
63499;SDS011;49654;51.142;14.924;2022-11-14T09:52:13;25.27;;;17.67;;
63499;SDS011;49654;51.142;14.924;2022-11-14T09:54:49;24.55;;;18.02;;
63499;SDS011;49654;51.142;14.924;2022-11-14T09:57:19;21.08;;;17.92;;
63499;SDS011;49654;51.142;14.924;2022-11-14T09:59:47;23.70;;;17.45;;
63499;SDS011;49654;51.142;14.924;2022-11-14T10:08:14;22.17;;;17.13;;
63499;SDS011;49654;51.142;14.924;2022-11-14T10:10:53;23.05;;;17.80;;
63499;SDS011;49654;51.142;14.924;2022-11-14T10:13:27;22.80;;;17.33;;
63499;SDS011;49654;51.142;14.924;2022-11-14T10:16:06;21.40;;;17.77;;
63499;SDS011;49654;51.142;14.924;2022-11-14T10:18:49;20.42;;;16.48;;
63499;SDS011;49654;51.142;14.924;2022-11-14T10:21:30;19.73;;;15.40;;
63499;SDS011;49654;51.142;14.924;2022-11-14T10:24:24;21.23;;;14.98;;
63499;SDS011;49654;51.142;14.924;2022-11-14T10:27:14;16.48;;;13.60;;
63499;SDS011;49654;51.142;14.924;2022-11-14T10:32:42;17.85;;;13.85;;
63499;SDS011;49654;51.142;14.924;2022-11-14T10:35:24;17.48;;;13.40;;
63499;SDS011;49654;51.142;14.924;2022-11-14T10:37:59;18.70;;;13.68;;
63499;SDS011;49654;51.142;14.924;2022-11-14T10:40:30;17.75;;;13.57;;
63499;SDS011;49654;51.142;14.924;2022-11-14T10:43:05;15.75;;;12.63;;
63499;SDS011;49654;51.142;14.924;2022-11-14T10:45:43;16.85;;;13.55;;
63499;SDS011;49654;51.142;14.924;2022-11-14T10:48:13;18.08;;;12.70;;
63499;SDS011;49654;51.142;14.924;2022-11-14T10:50:47;15.65;;;12.80;;
63499;SDS011;49654;51.142;14.924;2022-11-14T10:53:20;16.63;;;12.82;;
63499;SDS011;49654;51.142;14.924;2022-11-14T10:55:54;17.17;;;12.85;;
63499;SDS011;49654;51.142;14.924;2022-11-14T10:58:21;18.05;;;13.07;;
63499;SDS011;49654;51.142;14.924;2022-11-14T11:00:50;17.00;;;13.48;;
63499;SDS011;49654;51.142;14.924;2022-11-14T11:03:17;17.95;;;13.40;;
63499;SDS011;49654;51.142;14.924;2022-11-14T11:05:47;21.02;;;13.45;;
63499;SDS011;49654;51.142;14.924;2022-11-14T11:08:19;15.57;;;12.30;;
63499;SDS011;49654;51.142;14.924;2022-11-14T11:11:08;18.83;;;13.48;;
63499;SDS011;49654;51.142;14.924;2022-11-14T11:13:56;15.07;;;12.98;;
63499;SDS011;49654;51.142;14.924;2022-11-14T11:16:26;16.48;;;12.63;;
63499;SDS011;49654;51.142;14.924;2022-11-14T11:18:58;17.27;;;12.65;;
63499;SDS011;49654;51.142;14.924;2022-11-14T11:21:46;14.20;;;12.65;;
63499;SDS011;49654;51.142;14.924;2022-11-14T11:24:28;15.32;;;13.07;;
63499;SDS011;49654;51.142;14.924;2022-11-14T11:27:13;14.82;;;13.15;;
63499;SDS011;49654;51.142;14.924;2022-11-14T11:29:48;14.43;;;12.80;;
63499;SDS011;49654;51.142;14.924;2022-11-14T11:32:27;13.10;;;11.50;;
63499;SDS011;49654;51.142;14.924;2022-11-14T11:34:55;16.05;;;11.90;;
63499;SDS011;49654;51.142;14.924;2022-11-14T11:37:25;14.73;;;11.95;;
63499;SDS011;49654;51.142;14.924;2022-11-14T11:39:54;14.93;;;12.30;;
63499;SDS011;49654;51.142;14.924;2022-11-14T11:42:22;16.42;;;12.88;;
63499;SDS011;49654;51.142;14.924;2022-11-14T11:44:58;15.95;;;13.77;;
63499;SDS011;49654;51.142;14.924;2022-11-14T11:47:29;16.98;;;12.95;;
63499;SDS011;49654;51.142;14.924;2022-11-14T11:49:59;15.32;;;12.88;;
63499;SDS011;49654;51.142;14.924;2022-11-14T11:52:31;16.27;;;13.48;;
63499;SDS011;49654;51.142;14.924;2022-11-14T11:55:02;16.00;;;13.65;;
63499;SDS011;49654;51.142;14.924;2022-11-14T11:57:41;15.95;;;13.25;;
63499;SDS011;49654;51.142;14.924;2022-11-14T12:00:13;15.65;;;13.23;;
63499;SDS011;49654;51.142;14.924;2022-11-14T12:02:43;18.05;;;14.07;;
63499;SDS011;49654;51.142;14.924;2022-11-14T12:05:12;16.17;;;14.13;;
63499;SDS011;49654;51.142;14.924;2022-11-14T12:07:45;15.73;;;13.75;;
63499;SDS011;49654;51.142;14.924;2022-11-14T12:10:20;16.92;;;13.57;;
63499;SDS011;49654;51.142;14.924;2022-11-14T12:12:56;16.58;;;13.50;;
63499;SDS011;49654;51.142;14.924;2022-11-14T12:15:42;20.35;;;14.13;;
63499;SDS011;49654;51.142;14.924;2022-11-14T12:21:10;19.38;;;14.48;;
63499;SDS011;49654;51.142;14.924;2022-11-14T12:23:54;19.85;;;14.10;;
63499;SDS011;49654;51.142;14.924;2022-11-14T12:26:39;21.00;;;14.98;;
63499;SDS011;49654;51.142;14.924;2022-11-14T12:32:14;17.15;;;13.80;;
63499;SDS011;49654;51.142;14.924;2022-11-14T12:34:45;22.38;;;14.70;;
63499;SDS011;49654;51.142;14.924;2022-11-14T12:37:18;17.08;;;14.15;;
63499;SDS011;49654;51.142;14.924;2022-11-14T12:39:56;17.27;;;14.48;;
63499;SDS011;49654;51.142;14.924;2022-11-14T12:42:26;17.63;;;14.48;;
63499;SDS011;49654;51.142;14.924;2022-11-14T12:44:53;22.95;;;15.15;;
63499;SDS011;49654;51.142;14.924;2022-11-14T12:47:21;21.75;;;14.98;;
63499;SDS011;49654;51.142;14.924;2022-11-14T12:49:55;17.60;;;14.35;;
63499;SDS011;49654;51.142;14.924;2022-11-14T12:52:50;19.92;;;14.77;;
63499;SDS011;49654;51.142;14.924;2022-11-14T12:58:24;15.45;;;13.18;;
63499;SDS011;49654;51.142;14.924;2022-11-14T13:01:13;17.20;;;13.40;;
63499;SDS011;49654;51.142;14.924;2022-11-14T13:03:53;16.90;;;14.10;;
63499;SDS011;49654;51.142;14.924;2022-11-14T13:06:32;16.17;;;13.38;;
63499;SDS011;49654;51.142;14.924;2022-11-14T13:12:30;15.70;;;13.45;;
63499;SDS011;49654;51.142;14.924;2022-11-14T13:15:21;16.42;;;13.93;;
63499;SDS011;49654;51.142;14.924;2022-11-14T13:18:20;16.30;;;13.80;;
63499;SDS011;49654;51.142;14.924;2022-11-14T13:21:15;16.05;;;13.70;;
63499;SDS011;49654;51.142;14.924;2022-11-14T13:24:03;18.13;;;13.73;;
63499;SDS011;49654;51.142;14.924;2022-11-14T13:26:37;17.38;;;14.40;;
63499;SDS011;49654;51.142;14.924;2022-11-14T13:35:39;19.25;;;14.38;;
63499;SDS011;49654;51.142;14.924;2022-11-14T13:41:18;17.48;;;14.77;;
63499;SDS011;49654;51.142;14.924;2022-11-14T13:44:20;19.33;;;15.32;;
63499;SDS011;49654;51.142;14.924;2022-11-14T13:47:04;16.50;;;13.95;;
63499;SDS011;49654;51.142;14.924;2022-11-14T13:50:00;15.80;;;13.98;;
63499;SDS011;49654;51.142;14.924;2022-11-14T13:52:30;16.08;;;14.23;;
63499;SDS011;49654;51.142;14.924;2022-11-14T13:54:59;19.38;;;14.45;;
63499;SDS011;49654;51.142;14.924;2022-11-14T13:57:31;15.73;;;13.95;;
63499;SDS011;49654;51.142;14.924;2022-11-14T14:00:10;18.40;;;15.05;;
63499;SDS011;49654;51.142;14.924;2022-11-14T14:02:45;17.35;;;13.93;;
63499;SDS011;49654;51.142;14.924;2022-11-14T14:05:26;16.85;;;14.50;;
63499;SDS011;49654;51.142;14.924;2022-11-14T14:08:03;15.95;;;14.35;;
63499;SDS011;49654;51.142;14.924;2022-11-14T14:10:41;16.75;;;14.95;;
63499;SDS011;49654;51.142;14.924;2022-11-14T14:13:25;16.67;;;14.77;;
63499;SDS011;49654;51.142;14.924;2022-11-14T14:16:02;18.50;;;15.23;;
63499;SDS011;49654;51.142;14.924;2022-11-14T14:18:38;17.77;;;15.32;;
63499;SDS011;49654;51.142;14.924;2022-11-14T14:21:14;17.85;;;15.40;;
63499;SDS011;49654;51.142;14.924;2022-11-14T14:23:51;19.33;;;16.55;;
63499;SDS011;49654;51.142;14.924;2022-11-14T14:29:44;19.20;;;16.70;;
63499;SDS011;49654;51.142;14.924;2022-11-14T15:11:05;22.13;;;18.48;;
63499;SDS011;49654;51.142;14.924;2022-11-14T15:13:33;27.60;;;19.60;;
63499;SDS011;49654;51.142;14.924;2022-11-14T15:16:03;30.88;;;21.52;;
63499;SDS011;49654;51.142;14.924;2022-11-14T15:18:32;27.85;;;21.70;;
63499;SDS011;49654;51.142;14.924;2022-11-14T15:21:06;31.40;;;23.65;;
63499;SDS011;49654;51.142;14.924;2022-11-14T15:23:35;28.05;;;22.85;;
63499;SDS011;49654;51.142;14.924;2022-11-14T15:26:09;29.13;;;22.90;;
63499;SDS011;49654;51.142;14.924;2022-11-14T15:28:38;31.60;;;23.95;;
63499;SDS011;49654;51.142;14.924;2022-11-14T15:31:11;37.30;;;27.55;;
63499;SDS011;49654;51.142;14.924;2022-11-14T15:33:43;37.38;;;27.38;;
63499;SDS011;49654;51.142;14.924;2022-11-14T15:36:11;53.33;;;37.22;;
63499;SDS011;49654;51.142;14.924;2022-11-14T15:38:56;39.95;;;28.55;;
63499;SDS011;49654;51.142;14.924;2022-11-14T15:41:26;30.98;;;24.05;;